createdAt,value
2018-07-04T01:32:07.340Z,15.55
2018-07-04T01:34:46.663Z,16.30
2018-07-04T01:37:25.861Z,16.27
2018-07-04T01:40:05.251Z,16.05
2018-07-04T01:42:44.875Z,16.08
2018-07-04T01:45:24.449Z,16.09
2018-07-04T01:48:04.968Z,15.99
2018-07-04T01:50:44.462Z,15.91
2018-07-04T01:53:24.154Z,15.69
2018-07-04T01:56:03.306Z,15.65
2018-07-04T01:58:42.930Z,15.61
2018-07-04T02:01:22.163Z,15.70
2018-07-04T02:04:01.658Z,15.55
2018-07-04T02:06:41.032Z,15.59
2018-07-04T02:09:20.302Z,15.56
2018-07-04T02:11:59.700Z,15.37
2018-07-04T02:14:39.351Z,15.52
2018-07-04T02:17:18.357Z,15.54
2018-07-04T02:19:57.587Z,15.53
2018-07-04T02:22:36.854Z,15.05
2018-07-04T02:25:17.096Z,15.36
2018-07-04T02:27:56.672Z,15.35
2018-07-04T02:30:36.700Z,15.09
2018-07-04T02:33:15.845Z,15.21
2018-07-04T02:35:54.946Z,14.96
2018-07-04T02:38:34.696Z,15.06
2018-07-04T02:41:13.624Z,14.97
2018-07-04T02:43:52.923Z,14.91
2018-07-04T02:46:37.419Z,14.84
2018-07-04T02:49:16.859Z,14.57
2018-07-04T02:51:56.066Z,14.73
2018-07-04T02:54:36.032Z,14.73
2018-07-04T02:57:15.480Z,14.77
2018-07-04T02:59:54.613Z,14.84
2018-07-04T03:02:33.570Z,14.79
2018-07-04T03:05:13.059Z,14.90
2018-07-04T03:07:52.395Z,14.89
2018-07-04T03:10:32.270Z,14.89
2018-07-04T03:13:11.538Z,14.86
2018-07-04T03:15:50.809Z,14.75
2018-07-04T03:18:30.482Z,14.81
2018-07-04T03:21:09.697Z,14.62
2018-07-04T03:23:48.754Z,14.79
2018-07-04T03:26:27.744Z,14.79
2018-07-04T03:29:07.000Z,14.61
2018-07-04T03:31:49.044Z,14.68
2018-07-04T03:34:28.319Z,14.76
2018-07-04T03:37:09.188Z,14.75
2018-07-04T03:39:48.270Z,14.75
2018-07-04T03:42:27.670Z,14.76
2018-07-04T03:45:06.741Z,14.75
2018-07-04T03:47:45.853Z,14.74
2018-07-04T03:50:25.267Z,14.56
2018-07-04T03:53:04.590Z,14.64
2018-07-04T03:55:43.875Z,14.73
2018-07-04T03:58:23.527Z,14.73
2018-07-04T04:01:02.739Z,14.74
2018-07-04T04:03:42.251Z,14.73
2018-07-04T04:06:21.376Z,14.39
2018-07-04T04:09:00.838Z,14.57
2018-07-04T04:11:43.968Z,14.77
2018-07-04T04:14:23.468Z,14.77
2018-07-04T04:17:02.626Z,14.60
2018-07-04T04:19:42.476Z,14.81
2018-07-04T04:22:21.981Z,14.84
2018-07-04T04:25:01.420Z,14.87
2018-07-04T04:27:40.843Z,14.89
2018-07-04T04:30:20.101Z,14.73
2018-07-04T04:32:58.971Z,14.95
2018-07-04T04:35:40.842Z,14.83
2018-07-04T04:38:20.068Z,15.03
2018-07-04T04:40:59.666Z,15.08
2018-07-04T04:43:38.813Z,14.95
2018-07-04T04:46:18.019Z,15.18
2018-07-04T04:48:58.111Z,15.14
2018-07-04T04:51:37.171Z,15.09
2018-07-04T04:54:16.385Z,15.03
2018-07-04T04:56:55.528Z,15.32
2018-07-04T04:59:34.822Z,15.37
2018-07-04T05:02:13.780Z,15.32
2018-07-04T05:04:52.957Z,15.49
2018-07-04T05:07:31.817Z,15.40
2018-07-04T05:10:11.117Z,15.54
2018-07-04T05:12:50.664Z,15.68
2018-07-04T05:15:31.892Z,15.75
2018-07-04T05:18:11.408Z,15.81
2018-07-04T05:20:50.853Z,15.33
2018-07-04T05:23:29.916Z,15.95
2018-07-04T05:26:11.193Z,16.03
2018-07-04T05:28:50.362Z,16.11
2018-07-04T05:31:29.411Z,16.20
2018-07-04T05:34:08.881Z,16.25
2018-07-04T05:36:47.852Z,16.43
2018-07-04T05:39:27.421Z,16.52
2018-07-04T05:42:06.911Z,16.63
2018-07-04T05:44:46.796Z,16.72
2018-07-04T05:47:26.857Z,16.83
2018-07-04T05:50:06.500Z,16.94
2018-07-04T05:52:46.043Z,16.30
2018-07-04T05:55:25.955Z,16.30
2018-07-04T05:58:05.563Z,17.23
2018-07-04T06:00:46.190Z,17.33
2018-07-04T06:03:25.285Z,17.44
2018-07-04T06:06:04.760Z,17.55
2018-07-04T06:08:44.176Z,17.73
2018-07-04T06:11:24.290Z,17.88
2018-07-04T06:14:03.504Z,18.04
2018-07-04T06:16:42.964Z,18.23
2018-07-04T06:19:22.072Z,18.36
2018-07-04T06:22:02.149Z,18.44
2018-07-04T06:24:41.190Z,18.30
2018-07-04T06:27:20.880Z,18.59
2018-07-04T06:30:05.098Z,18.68
2018-07-04T06:32:45.181Z,18.78
2018-07-04T06:35:24.304Z,18.91
2018-07-04T06:37:51.191Z,19.17
2018-07-04T06:40:19.391Z,19.29
2018-07-04T06:42:52.513Z,19.62
2018-07-04T06:45:20.610Z,19.60
2018-07-04T06:47:47.424Z,20.11
2018-07-04T06:50:14.702Z,20.29
2018-07-04T06:52:41.878Z,20.42
2018-07-04T06:55:08.911Z,20.57
2018-07-04T06:57:35.930Z,20.70
2018-07-04T07:00:06.183Z,20.85
2018-07-04T07:02:33.340Z,20.98
2018-07-04T07:05:19.092Z,20.48
2018-07-04T07:08:01.010Z,21.16
2018-07-04T07:10:40.516Z,21.28
2018-07-04T07:13:21.084Z,21.38
2018-07-04T07:15:59.888Z,21.74
2018-07-04T07:18:39.352Z,22.18
2018-07-04T07:21:19.409Z,22.58
2018-07-04T07:23:59.363Z,23.25
2018-07-04T07:26:38.681Z,23.57
2018-07-04T07:29:17.844Z,23.78
2018-07-04T07:31:57.105Z,24.18
2018-07-04T07:34:36.578Z,24.55
2018-07-04T07:37:15.923Z,24.91
2018-07-04T07:39:55.402Z,25.27
2018-07-04T07:42:34.433Z,25.46
2018-07-04T07:45:14.334Z,25.68
2018-07-04T07:47:53.578Z,25.85
2018-07-04T07:50:33.395Z,25.83
2018-07-04T07:53:12.755Z,25.76
2018-07-04T07:55:52.784Z,25.84
2018-07-04T07:58:32.327Z,26.03
2018-07-04T08:01:11.677Z,26.28
2018-07-04T08:03:50.645Z,26.55
2018-07-04T08:09:13.547Z,26.70
2018-07-04T08:11:54.428Z,26.58
2018-07-04T08:14:33.686Z,26.59
2018-07-04T08:17:13.013Z,26.61
2018-07-04T08:19:52.042Z,26.87
2018-07-04T08:22:31.147Z,27.13
2018-07-04T08:25:10.312Z,27.71
2018-07-04T08:27:49.705Z,28.18
2018-07-04T08:30:29.086Z,28.68
2018-07-04T08:33:08.616Z,28.89
2018-07-04T08:35:48.394Z,29.17
2018-07-04T08:38:27.540Z,29.30
2018-07-04T08:41:07.175Z,29.55
2018-07-04T08:43:46.090Z,29.72
2018-07-04T08:46:26.384Z,29.73
2018-07-04T08:49:05.588Z,29.75
2018-07-04T08:51:45.081Z,29.75
2018-07-04T08:54:24.193Z,29.79
2018-07-04T08:57:04.289Z,30.07
2018-07-04T08:59:43.548Z,30.26
2018-07-04T09:02:22.628Z,30.56
2018-07-04T09:05:02.260Z,30.45
2018-07-04T09:07:42.384Z,30.29
2018-07-04T09:10:21.672Z,30.18
2018-07-04T09:13:02.275Z,30.29
2018-07-04T09:15:41.533Z,30.19
2018-07-04T09:18:21.123Z,30.16
2018-07-04T09:21:00.784Z,30.50
2018-07-04T09:23:40.324Z,31.00
2018-07-04T09:26:21.415Z,31.41
2018-07-04T09:29:00.786Z,31.54
2018-07-04T09:31:39.726Z,32.18
2018-07-04T09:34:19.218Z,32.54
2018-07-04T09:36:58.309Z,32.77
2018-07-04T09:39:38.456Z,33.00
2018-07-04T09:42:18.865Z,33.07
2018-07-04T09:44:58.363Z,33.18
2018-07-04T09:47:38.317Z,33.36
2018-07-04T09:50:18.059Z,33.31
2018-07-04T09:52:57.599Z,33.27
2018-07-04T09:55:37.562Z,33.09
2018-07-04T09:58:17.746Z,33.19
2018-07-04T10:01:03.850Z,33.21
2018-07-04T10:03:46.270Z,33.36
2018-07-04T10:06:27.211Z,33.77
2018-07-04T10:09:06.545Z,33.96
2018-07-04T10:11:45.951Z,33.86
2018-07-04T10:14:25.287Z,33.97
2018-07-04T10:17:05.567Z,34.30
2018-07-04T10:19:45.724Z,34.80
2018-07-04T10:22:26.340Z,34.73
2018-07-04T10:25:07.492Z,34.75
2018-07-04T10:27:47.663Z,34.86
2018-07-04T10:30:27.791Z,35.09
2018-07-04T10:33:08.327Z,35.21
2018-07-04T10:35:48.679Z,35.12
2018-07-04T10:38:28.001Z,34.91
2018-07-04T10:41:07.340Z,34.49
2018-07-04T10:43:54.004Z,34.22
2018-07-04T10:46:35.420Z,34.23
2018-07-04T10:49:16.481Z,34.01
2018-07-04T10:51:55.563Z,34.30
2018-07-04T10:54:35.152Z,34.45
2018-07-04T10:57:16.073Z,34.75
2018-07-04T10:59:57.131Z,34.83
2018-07-04T11:02:37.794Z,34.66
2018-07-04T11:05:18.866Z,34.39
2018-07-04T11:07:59.272Z,34.00
2018-07-04T11:10:40.403Z,33.75
2018-07-04T11:13:23.771Z,33.56
2018-07-04T11:16:05.591Z,33.44
2018-07-04T11:18:47.684Z,33.47
2018-07-04T11:21:29.444Z,33.49
2018-07-04T11:24:10.557Z,33.58
2018-07-04T11:26:56.884Z,33.70
2018-07-04T11:32:26.559Z,35.00
2018-07-04T11:35:06.248Z,35.99
2018-07-04T11:37:45.997Z,36.18
2018-07-04T11:40:25.194Z,35.98
2018-07-04T11:43:04.238Z,35.66
2018-07-04T11:45:43.460Z,35.32
2018-07-04T11:48:14.473Z,35.40
2018-07-04T11:50:44.103Z,35.05
2018-07-04T11:53:12.493Z,35.29
2018-07-04T11:55:39.552Z,35.33
2018-07-04T11:58:07.115Z,35.10
2018-07-04T12:00:34.162Z,34.73
2018-07-04T12:03:02.113Z,34.84
2018-07-04T12:05:42.229Z,35.09
2018-07-04T12:08:09.136Z,35.43
2018-07-04T12:10:35.928Z,35.75
2018-07-04T12:13:04.876Z,35.67
2018-07-04T12:15:32.828Z,35.50
2018-07-04T12:18:02.838Z,35.37
2018-07-04T12:20:30.372Z,35.12
2018-07-04T12:22:58.038Z,35.16
2018-07-04T12:25:25.719Z,35.17
2018-07-04T12:27:53.072Z,35.27
2018-07-04T12:30:20.037Z,35.31
2018-07-04T12:32:48.199Z,35.51
2018-07-04T12:35:15.744Z,35.54
2018-07-04T12:37:42.873Z,35.77
2018-07-04T12:40:09.968Z,35.95
2018-07-04T12:42:37.216Z,35.83
2018-07-04T12:45:04.802Z,35.49
2018-07-04T12:47:31.731Z,35.57
2018-07-04T12:49:59.227Z,35.53
2018-07-04T12:52:26.295Z,35.35
2018-07-04T12:55:07.098Z,35.48
2018-07-04T12:57:47.532Z,35.66
2018-07-04T13:00:26.568Z,35.78
2018-07-04T13:03:06.063Z,35.74
2018-07-04T13:05:45.470Z,35.54
2018-07-04T13:08:24.843Z,35.43
2018-07-04T13:11:04.499Z,35.35
2018-07-04T13:13:45.015Z,35.13
2018-07-04T13:16:25.844Z,34.81
2018-07-04T13:19:05.090Z,35.11
2018-07-04T13:21:44.085Z,35.30
2018-07-04T13:24:23.998Z,35.66
2018-07-04T13:27:03.459Z,35.86
2018-07-04T13:29:44.260Z,35.86
2018-07-04T13:32:24.132Z,35.93
2018-07-04T13:35:05.086Z,36.09
2018-07-04T13:37:47.444Z,36.11
2018-07-04T13:40:28.136Z,36.24
2018-07-04T13:43:08.312Z,36.35
2018-07-04T13:45:50.565Z,36.65
2018-07-04T13:48:31.201Z,36.83
2018-07-04T13:51:11.661Z,37.06
2018-07-04T13:53:51.616Z,37.43
2018-07-04T13:56:31.518Z,37.79
2018-07-04T13:59:15.319Z,37.90
2018-07-04T14:01:55.002Z,37.71
2018-07-04T14:07:24.596Z,37.03
2018-07-04T14:10:06.059Z,37.00
2018-07-04T14:12:51.101Z,36.94
2018-07-04T14:15:31.261Z,36.66
2018-07-04T14:18:10.869Z,36.45
2018-07-04T14:20:51.166Z,36.34
2018-07-04T14:23:31.648Z,36.38
2018-07-04T14:26:14.240Z,36.09
2018-07-04T14:28:54.439Z,35.98
2018-07-04T14:31:41.241Z,35.72
2018-07-04T14:34:25.397Z,35.50
2018-07-04T14:37:06.064Z,35.31
2018-07-04T14:39:46.662Z,34.77
2018-07-04T14:42:25.829Z,34.94
2018-07-04T14:45:07.516Z,34.37
2018-07-04T14:47:48.404Z,34.66
2018-07-04T14:50:32.910Z,34.67
2018-07-04T14:53:12.692Z,34.62
2018-07-04T14:55:57.654Z,34.62
2018-07-04T14:58:36.968Z,34.62
2018-07-04T15:01:17.638Z,34.22
2018-07-04T15:04:00.352Z,34.37
2018-07-04T15:06:40.640Z,34.23
2018-07-04T15:09:21.658Z,34.21
2018-07-04T15:12:06.070Z,34.30
2018-07-04T15:14:49.105Z,34.39
2018-07-04T15:17:30.114Z,34.47
2018-07-04T15:20:10.339Z,34.48
2018-07-04T15:22:53.717Z,34.57
2018-07-04T15:25:34.470Z,34.57
2018-07-04T15:28:15.859Z,34.42
2018-07-04T15:33:40.969Z,34.36
2018-07-04T15:36:21.702Z,34.31
2018-07-04T15:39:01.249Z,34.37
2018-07-04T15:41:40.982Z,34.38
2018-07-04T15:44:20.988Z,34.35
2018-07-04T15:47:02.229Z,34.23
2018-07-04T15:49:47.265Z,34.05
2018-07-04T15:52:26.640Z,33.83
2018-07-04T15:55:06.320Z,33.69
2018-07-04T15:57:46.736Z,33.66
2018-07-04T16:00:33.117Z,33.37
2018-07-04T16:03:13.097Z,33.38
2018-07-04T16:05:53.203Z,33.35
2018-07-04T16:08:33.338Z,33.27
2018-07-04T16:11:14.310Z,33.31
2018-07-04T16:13:54.696Z,33.49
2018-07-04T16:16:35.556Z,33.62
2018-07-04T16:19:15.639Z,33.60
2018-07-04T16:21:57.401Z,33.54
2018-07-04T16:24:36.768Z,33.50
2018-07-04T16:27:16.625Z,33.38
2018-07-04T16:29:55.910Z,33.19
2018-07-04T16:32:36.136Z,32.85
2018-07-04T16:35:15.723Z,32.66
2018-07-04T16:37:55.256Z,32.43
2018-07-04T16:40:35.826Z,32.29
2018-07-04T16:43:15.526Z,31.99
2018-07-04T16:45:56.375Z,32.02
2018-07-04T16:48:36.755Z,31.96
2018-07-04T16:51:15.980Z,31.91
2018-07-04T16:53:58.103Z,31.92
2018-07-04T16:56:37.305Z,31.95
2018-07-04T16:59:17.687Z,31.96
2018-07-04T17:01:58.068Z,31.93
2018-07-04T17:04:38.294Z,31.91
2018-07-04T17:07:18.794Z,31.90
2018-07-04T17:10:01.085Z,31.91
2018-07-04T17:15:32.657Z,31.96
2018-07-04T17:18:12.877Z,31.98
2018-07-04T17:20:53.898Z,31.92
2018-07-04T17:23:34.334Z,31.87
2018-07-04T17:26:18.375Z,31.76
2018-07-04T17:29:01.008Z,31.73
2018-07-04T17:31:41.409Z,31.79
2018-07-04T17:34:21.149Z,31.70
2018-07-04T17:37:00.675Z,31.48
2018-07-04T17:39:43.576Z,31.57
2018-07-04T17:42:24.607Z,31.47
2018-07-04T17:45:06.322Z,31.38
2018-07-04T17:47:47.287Z,31.28
2018-07-04T17:50:30.523Z,31.21
2018-07-04T17:53:10.150Z,31.13
2018-07-04T17:55:50.302Z,31.01
2018-07-04T17:58:30.029Z,30.92
2018-07-04T18:01:10.868Z,30.74
2018-07-04T18:03:50.283Z,30.82
2018-07-04T18:06:31.709Z,30.76
2018-07-04T18:09:17.254Z,30.70
2018-07-04T18:11:59.852Z,30.64
2018-07-04T18:14:39.228Z,30.58
2018-07-04T18:17:19.712Z,30.54
2018-07-04T18:20:05.457Z,30.49
2018-07-04T18:22:46.529Z,30.43
2018-07-04T18:25:26.160Z,30.39
2018-07-04T18:28:08.282Z,30.37
2018-07-04T18:30:52.009Z,30.32
2018-07-04T18:33:33.660Z,30.28
2018-07-04T18:36:15.197Z,30.22
2018-07-04T18:41:47.014Z,30.13
2018-07-04T18:44:31.170Z,30.06
2018-07-04T18:47:16.263Z,30.01
2018-07-04T18:49:56.029Z,29.98
2018-07-04T18:52:35.398Z,29.89
2018-07-04T18:55:17.207Z,29.89
2018-07-04T18:58:00.286Z,29.93
2018-07-04T19:00:41.588Z,29.40
2018-07-04T19:03:22.343Z,29.84
2018-07-04T19:06:03.024Z,29.76
2018-07-04T19:08:44.221Z,29.66
2018-07-04T19:11:27.129Z,29.55
2018-07-04T19:14:09.881Z,29.43
2018-07-04T19:16:51.047Z,29.32
2018-07-04T19:19:37.017Z,29.20
2018-07-04T19:22:17.033Z,29.10
2018-07-04T19:24:56.523Z,29.00
2018-07-04T19:27:37.748Z,28.77
2018-07-04T19:30:18.118Z,28.80
2018-07-04T19:32:58.043Z,28.69
2018-07-04T19:35:38.653Z,28.57
2018-07-04T19:38:19.865Z,28.44
2018-07-04T19:41:00.011Z,28.34
2018-07-04T19:43:40.158Z,28.26
2018-07-04T19:46:20.242Z,28.20
2018-07-04T19:49:01.497Z,28.07
2018-07-04T19:51:41.532Z,28.07
2018-07-04T19:54:21.934Z,27.98
2018-07-04T19:57:01.976Z,27.90
2018-07-04T19:59:43.264Z,27.81
2018-07-04T20:02:23.112Z,27.58
2018-07-04T20:05:04.918Z,27.61
2018-07-04T20:07:44.568Z,27.51
2018-07-04T20:10:25.150Z,27.43
2018-07-04T20:13:06.354Z,27.33
2018-07-04T20:15:47.486Z,27.26
2018-07-04T20:18:26.785Z,27.02
2018-07-04T20:21:05.817Z,27.08
2018-07-04T20:23:46.284Z,26.98
2018-07-04T20:26:25.901Z,26.87
2018-07-04T20:29:06.272Z,26.51
2018-07-04T20:31:47.968Z,26.71
2018-07-04T20:34:31.180Z,26.64
2018-07-04T20:37:11.119Z,26.56
2018-07-04T20:39:51.946Z,26.48
2018-07-04T20:42:40.060Z,26.40
2018-07-04T20:45:20.542Z,26.30
2018-07-04T20:47:59.829Z,26.23
2018-07-04T20:50:39.355Z,26.17
2018-07-04T20:53:18.495Z,26.11
2018-07-04T20:55:57.993Z,26.04
2018-07-04T20:58:37.099Z,25.97
2018-07-04T21:01:17.084Z,25.92
2018-07-04T21:03:56.264Z,25.86
2018-07-04T21:06:35.802Z,25.80
2018-07-04T21:09:15.277Z,25.72
2018-07-04T21:11:54.954Z,25.65
2018-07-04T21:14:34.106Z,25.58
2018-07-04T21:17:13.577Z,25.51
2018-07-04T21:19:52.587Z,25.16
2018-07-04T21:22:33.521Z,24.78
2018-07-04T21:25:12.544Z,25.17
2018-07-04T21:27:52.460Z,25.24
2018-07-04T21:30:31.530Z,25.17
2018-07-04T21:33:11.547Z,25.11
2018-07-04T21:35:51.141Z,25.03
2018-07-04T21:38:31.119Z,25.00
2018-07-04T21:41:11.218Z,24.93
2018-07-04T21:43:52.732Z,24.89
2018-07-04T21:46:33.145Z,24.55
2018-07-04T21:49:12.800Z,24.76
2018-07-04T21:51:52.621Z,24.71
2018-07-04T21:54:32.195Z,24.64
2018-07-04T21:57:12.058Z,24.59
2018-07-04T21:59:55.756Z,24.54
2018-07-04T22:02:36.048Z,24.50
2018-07-04T22:05:20.152Z,24.44
2018-07-04T22:08:00.201Z,24.29
2018-07-04T22:10:40.723Z,24.23
2018-07-04T22:13:19.868Z,24.28
2018-07-04T22:15:59.551Z,24.25
2018-07-04T22:18:39.066Z,24.21
2018-07-04T22:21:18.600Z,24.16
2018-07-04T22:23:58.278Z,24.08
2018-07-04T22:26:37.691Z,24.04
2018-07-04T22:29:17.848Z,23.83
2018-07-04T22:31:57.211Z,23.91
2018-07-04T22:34:37.737Z,23.86
2018-07-04T22:37:16.711Z,23.78
2018-07-04T22:39:56.563Z,23.74
2018-07-04T22:42:35.560Z,23.73
2018-07-04T22:45:15.170Z,23.73
2018-07-04T22:47:54.748Z,23.70
2018-07-04T22:50:33.964Z,23.71
2018-07-04T22:53:13.628Z,23.70
2018-07-04T22:55:53.161Z,23.54
2018-07-04T22:58:32.915Z,23.69
2018-07-04T23:01:12.767Z,23.59
2018-07-04T23:03:53.051Z,23.66
2018-07-04T23:06:32.677Z,23.65
2018-07-04T23:09:12.607Z,23.64
2018-07-04T23:11:52.712Z,23.63
2018-07-04T23:14:32.285Z,23.63
2018-07-04T23:17:11.465Z,23.62
2018-07-04T23:19:51.382Z,23.59
2018-07-04T23:22:31.182Z,23.55
2018-07-04T23:25:10.883Z,23.51
2018-07-04T23:27:50.463Z,23.47
2018-07-04T23:30:30.078Z,23.37
2018-07-04T23:33:09.132Z,23.43
2018-07-04T23:35:48.525Z,23.41
2018-07-04T23:38:28.074Z,23.37
2018-07-04T23:41:07.098Z,23.34
2018-07-04T23:43:47.144Z,23.31
2018-07-04T23:46:27.130Z,23.29
2018-07-04T23:49:07.718Z,23.25
2018-07-04T23:51:47.192Z,23.22
2018-07-04T23:54:26.493Z,23.20
2018-07-04T23:57:05.762Z,23.15
2018-07-04T23:59:45.299Z,23.10
